Time;durP1;ratioP1;P1;durP2;ratioP2;P2;SDS_P1;SDS_P2;PMS_P1;PMS_P2;Temp;Humidity;BMP_temperature;BMP_pressure;BME280_temperature;BME280_humidity;BME280_pressure;Samples;Min_cycle;Max_cycle;Signal;HPM_P1;HPM_P2
2022/09/06 00:03:16;;;;;;;5.22;2.55;;;;;;;16.53;68.74;100947.64;2751930;85;21092;-89
2022/09/06 00:07:17;;;;;;;4.95;2.70;;;;;;;16.63;68.18;100943.05;2746723;86;21066;-90
2022/09/06 00:11:19;;;;;;;5.53;3.72;;;;;;;16.72;68.64;100948.02;2721519;86;21062;-89
2022/09/06 00:15:21;;;;;;;3.95;2.72;;;;;;;16.77;67.75;100947.58;2722533;86;21031;-89
2022/09/06 00:19:22;;;;;;;6.05;2.67;;;;;;;16.80;68.28;100939.21;2769556;85;21056;-89
2022/09/06 00:23:23;;;;;;;4.10;2.80;;;;;;;16.85;67.92;100944.48;2764280;85;21150;-90
2022/09/06 00:27:25;;;;;;;4.10;2.75;;;;;;;16.90;67.40;100946.73;2696894;86;21070;-90
2022/09/06 00:31:27;;;;;;;4.80;3.27;;;;;;;16.91;67.00;100943.05;2760415;83;21045;-89
2022/09/06 00:35:29;;;;;;;4.40;1.75;;;;;;;16.91;67.03;100943.53;2738752;85;21064;-89
2022/09/06 00:39:30;;;;;;;3.72;2.12;;;;;;;16.93;67.75;100938.84;2755876;85;21156;-89
2022/09/06 00:43:31;;;;;;;5.33;3.35;;;;;;;16.91;67.67;100938.16;2753993;85;21105;-90
2022/09/06 00:47:35;;;;;;;8.93;3.10;;;;;;;16.90;67.54;100931.95;2754846;85;21102;-89
2022/09/06 00:51:37;;;;;;;2.90;1.98;;;;;;;16.85;67.85;100932.40;2754698;85;21143;-90
2022/09/06 00:55:40;;;;;;;2.33;2.02;;;;;;;16.82;68.59;100935.88;2760646;85;21085;-90
2022/09/06 00:59:42;;;;;;;3.30;2.30;;;;;;;16.79;68.89;100930.81;2757077;85;21094;-90
2022/09/06 01:03:44;;;;;;;5.47;2.25;;;;;;;16.78;69.04;100930.46;2756833;85;21013;-90
2022/09/06 01:08:19;;;;;;;4.85;2.83;;;;;;;16.79;69.91;100930.81;2769186;83;21338;-89
2022/09/06 01:12:29;;;;;;;7.12;3.30;;;;;;;16.78;70.36;100922.41;2752549;85;21641;-89
2022/09/06 01:16:51;;;;;;;6.25;2.15;;;;;;;16.69;70.47;100913.41;2752911;86;21046;-90
2022/09/06 01:21:13;;;;;;;3.70;2.92;;;;;;;16.64;71.23;100925.94;2756262;86;21067;-89
2022/09/06 01:25:45;;;;;;;4.72;2.52;;;;;;;16.57;71.53;100919.48;2675433;86;21038;-89
2022/09/06 01:29:54;;;;;;;3.95;3.22;;;;;;;16.50;72.53;100921.05;2742621;84;21825;-90
2022/09/06 01:34:20;;;;;;;4.67;3.55;;;;;;;16.44;72.81;100923.00;2741809;85;21044;-89
2022/09/06 01:38:21;;;;;;;5.08;3.50;;;;;;;16.44;72.82;100925.69;2723819;85;21072;-91
2022/09/06 01:42:27;;;;;;;5.35;4.33;;;;;;;16.39;72.81;100914.05;2740476;85;21059;-89
2022/09/06 01:46:38;;;;;;;;;;;;;;;16.36;72.49;100915.20;2752761;85;21022;-89
2022/09/06 01:51:12;;;;;;;4.90;2.80;;;;;;;16.34;72.44;100917.69;2760950;85;20164;-89
2022/09/06 01:55:44;;;;;;;3.67;2.42;;;;;;;16.29;72.08;100924.83;2763840;85;21088;-88
2022/09/06 02:00:05;;;;;;;2.90;2.00;;;;;;;16.24;72.16;100929.80;2759203;84;21039;-90
2022/09/06 02:04:14;;;;;;;3.47;1.82;;;;;;;16.10;72.67;100933.30;2725360;86;21058;-89
2022/09/06 02:08:30;;;;;;;4.50;2.58;;;;;;;16.02;73.26;100922.47;2732707;86;21026;-88
2022/09/06 02:12:34;;;;;;;7.65;3.02;;;;;;;15.92;73.93;100905.56;2751960;85;21161;-90
2022/09/06 02:16:40;;;;;;;4.65;3.08;;;;;;;15.90;74.92;100902.16;2759001;85;21420;-89
2022/09/06 02:20:51;;;;;;;5.33;2.27;;;;;;;15.83;75.19;100891.16;2760451;85;21065;-90
2022/09/06 02:24:54;;;;;;;3.98;3.05;;;;;;;15.76;74.47;100888.20;2750189;85;21046;-91
2022/09/06 02:28:56;;;;;;;9.88;2.72;;;;;;;15.75;74.85;100889.20;2758421;84;21645;-90
2022/09/06 02:33:03;;;;;;;9.45;2.98;;;;;;;15.78;74.05;100902.80;2755031;85;20999;-90
2022/09/06 02:37:05;;;;;;;5.00;2.40;;;;;;;15.84;74.50;100902.23;2745108;85;21574;-89
2022/09/06 02:41:07;;;;;;;3.92;2.60;;;;;;;15.85;74.33;100890.52;2768277;83;21058;-89
2022/09/06 02:45:09;;;;;;;3.60;2.87;;;;;;;15.85;73.76;100879.27;2741060;85;21003;-92
2022/09/06 02:49:10;;;;;;;3.87;2.08;;;;;;;15.75;73.78;100877.13;2746369;85;21023;-89
2022/09/06 02:53:14;;;;;;;3.90;2.45;;;;;;;15.69;73.62;100877.20;2763793;85;21026;-89
2022/09/06 02:57:15;;;;;;;5.42;2.90;;;;;;;15.64;74.35;100877.28;2771744;85;21193;-90
2022/09/06 03:01:16;;;;;;;9.23;2.90;;;;;;;15.63;74.67;100876.94;2665186;87;21618;-86
2022/09/06 03:05:18;;;;;;;4.37;2.58;;;;;;;15.61;75.19;100877.58;2671625;86;21041;-89
2022/09/06 03:09:19;;;;;;;3.30;1.92;;;;;;;15.64;75.22;100881.30;2735506;85;21561;-88
2022/09/06 03:13:23;;;;;;;4.55;1.90;;;;;;;15.70;75.85;100883.40;2742568;85;21066;-89
2022/09/06 03:17:24;;;;;;;3.25;2.62;;;;;;;15.78;75.04;100886.22;2692891;87;21126;-88
2022/09/06 03:21:25;;;;;;;5.12;2.20;;;;;;;15.76;73.62;100879.30;2684933;86;21043;-88
2022/09/06 03:25:27;;;;;;;5.65;2.27;;;;;;;15.73;72.82;100860.82;2740626;84;21082;-88
2022/09/06 03:29:30;;;;;;;5.67;2.12;;;;;;;15.68;71.92;100855.88;2731664;85;21055;-88
2022/09/06 03:33:31;;;;;;;4.40;2.00;;;;;;;15.60;71.00;100843.71;2731945;85;21034;-89
2022/09/06 03:37:32;;;;;;;3.70;2.20;;;;;;;15.60;71.11;100853.92;2734334;84;21341;-89
2022/09/06 03:41:34;;;;;;;6.35;2.62;;;;;;;15.61;70.89;100856.95;2713378;84;21677;-89
2022/09/06 03:45:35;;;;;;;4.25;2.47;;;;;;;15.60;71.10;100863.31;2733569;84;21057;-89
2022/09/06 03:49:36;;;;;;;5.28;2.85;;;;;;;15.63;71.47;100867.55;2728478;86;21808;-89
2022/09/06 03:53:37;;;;;;;4.05;1.52;;;;;;;15.63;72.15;100867.55;2728282;87;21118;-89
2022/09/06 03:57:38;;;;;;;2.62;1.70;;;;;;;15.66;73.00;100861.89;2733599;85;21043;-89
2022/09/06 04:01:39;;;;;;;5.22;2.42;;;;;;;15.65;72.40;100862.41;2740288;85;21069;-89
2022/09/06 04:05:46;;;;;;;6.40;3.10;;;;;;;15.68;73.40;100862.59;2755515;85;21067;-91
2022/09/06 04:09:47;;;;;;;6.37;3.02;;;;;;;15.65;73.92;100871.80;2728325;85;21031;-91
2022/09/06 04:13:48;;;;;;;3.87;2.30;;;;;;;15.68;73.50;100870.16;2725692;86;21079;-90
2022/09/06 04:17:49;;;;;;;4.40;2.42;;;;;;;15.70;74.37;100872.19;2703167;85;21118;-93
2022/09/06 04:21:51;;;;;;;4.50;2.50;;;;;;;15.76;74.01;100884.19;2742138;84;21082;-92
2022/09/06 04:25:56;;;;;;;2.98;1.87;;;;;;;15.81;74.37;100884.58;2745249;84;21078;-89
2022/09/06 04:29:57;;;;;;;3.10;1.75;;;;;;;15.91;74.62;100879.70;2733610;86;21094;-92
2022/09/06 04:33:59;;;;;;;3.37;2.25;;;;;;;15.98;74.85;100886.19;2743806;85;21038;-92
2022/09/06 04:38:01;;;;;;;8.80;3.65;;;;;;;16.03;74.89;100893.81;2695094;83;21075;-92
2022/09/06 04:42:03;;;;;;;5.12;3.42;;;;;;;16.09;76.18;100906.12;2662182;87;21036;-93
2022/09/06 04:46:24;;;;;;;9.93;4.58;;;;;;;15.97;77.37;100894.72;2637731;88;22273;-92
2022/09/06 04:50:26;;;;;;;6.65;3.27;;;;;;;15.93;77.96;100885.80;2620322;88;21421;-92
2022/09/06 04:54:27;;;;;;;4.62;2.20;;;;;;;15.91;76.98;100878.36;2635147;89;21055;-91
2022/09/06 04:58:28;;;;;;;7.62;2.60;;;;;;;15.91;76.92;100883.72;2736946;86;21038;-91
2022/09/06 05:02:29;;;;;;;3.10;2.80;;;;;;;16.26;76.64;100888.89;2730509;86;21106;-92
2022/09/06 05:06:31;;;;;;;4.33;2.67;;;;;;;16.50;75.89;100896.89;2726352;87;21098;-89
2022/09/06 05:10:32;;;;;;;3.60;2.77;;;;;;;16.47;75.14;100891.83;2730758;85;21027;-91
2022/09/06 05:14:34;;;;;;;2.52;1.92;;;;;;;16.35;74.92;100896.07;2726501;84;21087;-92
2022/09/06 05:18:36;;;;;;;3.60;2.25;;;;;;;16.17;75.02;100892.48;2723007;86;21114;-92
2022/09/06 05:22:39;;;;;;;2.17;1.90;;;;;;;15.96;75.05;100894.89;2729367;85;21091;-92
2022/09/06 05:26:40;;;;;;;3.90;2.25;;;;;;;15.89;76.08;100899.13;2725364;87;21106;-92
2022/09/06 05:30:42;;;;;;;4.00;1.82;;;;;;;15.78;77.26;100900.97;2730110;83;21157;-89
2022/09/06 05:34:43;;;;;;;2.55;2.27;;;;;;;15.67;77.75;100901.13;2727477;86;21035;-92
2022/09/06 05:38:44;;;;;;;5.28;2.60;;;;;;;15.69;77.76;100901.83;2732713;84;21649;-93
2022/09/06 05:42:45;;;;;;;2.55;1.98;;;;;;;15.65;78.26;100896.41;2704570;87;21086;-92
2022/09/06 05:46:47;;;;;;;5.75;3.22;;;;;;;15.65;78.98;100898.61;2760994;84;21146;-92
2022/09/06 05:51:01;;;;;;;3.87;2.22;;;;;;;15.64;78.99;100896.91;2732399;85;21166;-93
2022/09/06 05:55:03;;;;;;;2.58;2.17;;;;;;;15.64;80.28;100889.35;2739751;85;21061;-91
2022/09/06 05:59:05;;;;;;;4.37;2.95;;;;;;;15.68;80.93;100890.75;2730178;85;21071;-92
2022/09/06 06:03:06;;;;;;;5.30;2.72;;;;;;;15.65;79.16;100893.24;2767704;83;21114;-92
2022/09/06 06:07:07;;;;;;;3.50;2.05;;;;;;;15.62;80.77;100881.95;2710738;85;21157;-91
2022/09/06 06:11:08;;;;;;;5.70;2.40;;;;;;;15.55;80.91;100879.86;2729740;85;20980;-91
2022/09/06 06:15:10;;;;;;;2.30;1.80;;;;;;;15.55;79.86;100885.22;2731208;85;21047;-90
2022/09/06 06:19:11;;;;;;;3.92;2.90;;;;;;;15.50;79.50;100882.09;2773332;84;21046;-91
2022/09/06 06:23:14;;;;;;;4.40;2.65;;;;;;;15.50;81.28;100874.56;2735082;85;21039;-92
2022/09/06 06:27:15;;;;;;;6.45;2.37;;;;;;;15.52;82.59;100873.41;2718242;85;21065;-89
2022/09/06 06:31:18;;;;;;;4.62;2.25;;;;;;;15.58;82.90;100880.55;2737996;85;21594;-91
2022/09/06 06:35:19;;;;;;;9.50;2.92;;;;;;;15.67;85.05;100874.31;2729742;87;21039;-93
2022/09/06 06:39:20;;;;;;;4.00;2.20;;;;;;;15.73;82.86;100869.73;2740268;84;21566;-92
2022/09/06 06:43:22;;;;;;;3.65;2.42;;;;;;;15.83;82.24;100858.45;2720234;86;24397;-92
2022/09/06 06:47:24;;;;;;;22.70;4.12;;;;;;;15.96;80.46;100865.38;2729886;85;21139;-92
2022/09/06 06:51:29;;;;;;;2.45;2.25;;;;;;;16.03;79.63;100857.59;2734111;85;21054;-93
2022/09/06 06:55:31;;;;;;;6.78;3.02;;;;;;;16.11;79.86;100871.95;2730732;85;21051;-92
2022/09/06 06:59:32;;;;;;;4.22;2.75;;;;;;;16.24;78.78;100883.69;2739074;85;21070;-91
2022/09/06 07:03:33;;;;;;;6.35;2.90;;;;;;;16.38;77.47;100891.73;2740463;85;21035;-93
2022/09/06 07:07:34;;;;;;;11.05;3.27;;;;;;;16.47;75.05;100890.48;2737224;85;21031;-93
2022/09/06 07:11:35;;;;;;;10.03;3.00;;;;;;;16.53;75.39;100892.59;2737043;86;22183;-93
2022/09/06 07:15:36;;;;;;;6.25;3.52;;;;;;;16.58;74.96;100889.43;2731304;85;21145;-92
2022/09/06 07:19:38;;;;;;;5.35;2.67;;;;;;;16.69;74.62;100891.92;2747053;84;21559;-92
2022/09/06 07:23:39;;;;;;;4.45;3.42;;;;;;;16.80;74.13;100899.77;2733594;85;21100;-92
2022/09/06 07:27:42;;;;;;;5.90;3.45;;;;;;;16.88;73.95;100904.36;2729995;87;21657;-91
2022/09/06 07:31:43;;;;;;;10.28;2.85;;;;;;;17.02;72.38;100898.16;2730059;86;21063;-91
2022/09/06 07:36:00;;;;;;;6.28;3.27;;;;;;;17.03;71.47;100895.81;2729907;87;21059;-93
2022/09/06 07:40:03;;;;;;;9.63;2.95;;;;;;;17.21;71.83;100903.89;2756127;84;21102;-92
2022/09/06 07:44:05;;;;;;;4.62;2.67;;;;;;;17.32;70.97;100905.49;2726925;87;21708;-92
2022/09/06 07:48:06;;;;;;;6.67;3.33;;;;;;;17.33;70.83;100901.80;2726784;86;21341;-92
2022/09/06 07:52:07;;;;;;;5.75;3.10;;;;;;;17.35;71.27;100899.28;2727813;86;21122;-91
2022/09/06 07:56:11;;;;;;;8.43;3.98;;;;;;;17.41;70.58;100881.69;2738053;85;21130;-92
2022/09/06 08:00:12;;;;;;;5.58;3.42;;;;;;;17.69;69.67;100885.08;2738906;85;21586;-91
2022/09/06 08:04:14;;;;;;;6.53;3.98;;;;;;;18.29;69.76;100881.23;2740940;86;21540;-92
2022/09/06 08:08:16;;;;;;;8.20;3.08;;;;;;;18.59;67.56;100876.27;2707833;85;21579;-90
2022/09/06 08:12:18;;;;;;;7.35;4.10;;;;;;;18.86;66.46;100875.64;2750434;84;21031;-91
2022/09/06 08:16:21;;;;;;;4.90;2.87;;;;;;;18.84;65.61;100869.58;2743079;84;21573;-92
2022/09/06 08:20:22;;;;;;;5.87;3.65;;;;;;;18.96;67.21;100873.65;2707436;85;21035;-93
2022/09/06 08:24:23;;;;;;;6.67;4.03;;;;;;;19.02;66.52;100878.06;2729233;86;21070;-93
2022/09/06 08:28:25;;;;;;;9.10;4.10;;;;;;;18.89;67.65;100880.73;2736308;85;21099;-93
2022/09/06 08:32:26;;;;;;;6.87;3.67;;;;;;;18.98;66.03;100874.36;2726356;85;21067;-92
2022/09/06 08:36:29;;;;;;;8.18;3.65;;;;;;;19.14;65.84;100872.69;2727710;83;20988;-91
2022/09/06 08:40:31;;;;;;;5.65;3.27;;;;;;;19.26;65.30;100870.00;2763649;84;21021;-92
2022/09/06 08:44:47;;;;;;;6.03;3.22;;;;;;;19.56;64.76;100860.03;2763656;85;21050;-93
2022/09/06 08:48:48;;;;;;;;;;;;;;;19.79;65.99;100862.00;2758314;84;21080;-92
2022/09/06 08:53:06;;;;;;;5.85;2.95;;;;;;;20.25;63.49;100869.47;2755180;85;20200;-93
2022/09/06 08:57:21;;;;;;;9.23;3.47;;;;;;;20.45;63.05;100872.57;2766121;84;21038;-91
2022/09/06 09:01:27;;;;;;;4.00;3.20;;;;;;;20.54;63.95;100875.58;2755319;85;21085;-92
2022/09/06 09:05:33;;;;;;;6.50;4.25;;;;;;;20.43;64.81;100865.65;2754442;85;21050;-93
2022/09/06 09:09:35;;;;;;;3.87;2.67;;;;;;;20.10;64.96;100865.30;2756095;85;21038;-91
2022/09/06 09:13:53;;;;;;;5.03;3.95;;;;;;;20.24;62.86;100865.06;2771114;83;21061;-92
2022/09/06 09:17:55;;;;;;;3.12;2.83;;;;;;;19.94;64.86;100870.25;2757038;85;21038;-91
2022/09/06 09:21:56;;;;;;;4.20;2.77;;;;;;;19.93;65.57;100868.05;2756681;84;21075;-92
2022/09/06 09:26:15;;;;;;;5.30;3.20;;;;;;;20.04;65.90;100851.97;2754727;86;21617;-94
2022/09/06 09:30:17;;;;;;;13.68;3.55;;;;;;;20.19;64.66;100842.66;2756869;85;21863;-93
2022/09/06 09:34:34;;;;;;;5.03;3.12;;;;;;;20.29;64.90;100837.03;2762000;85;21070;-92
2022/09/06 09:38:45;;;;;;;6.25;3.50;;;;;;;20.29;65.61;100841.09;2763995;85;21023;-93
2022/09/06 09:42:47;;;;;;;8.25;3.85;;;;;;;20.49;64.06;100837.94;2752111;85;21152;-92
2022/09/06 09:46:49;;;;;;;3.42;2.60;;;;;;;20.69;65.66;100827.49;2735150;86;21055;-93
2022/09/06 09:50:50;;;;;;;5.42;4.05;;;;;;;21.00;62.54;100819.02;2743735;86;21079;-91
2022/09/06 09:54:54;;;;;;;4.50;3.35;;;;;;;21.12;61.83;100815.69;2731732;86;21007;-91
2022/09/06 09:58:57;;;;;;;10.10;3.55;;;;;;;21.23;62.81;100806.32;2719148;86;21090;-92
2022/09/06 10:02:58;;;;;;;15.10;4.05;;;;;;;21.32;61.35;100799.47;2653193;88;21062;-92
2022/09/06 10:07:16;;;;;;;4.22;3.50;;;;;;;21.40;62.88;100800.72;2756096;85;21042;-91
2022/09/06 10:11:41;;;;;;;5.55;3.12;;;;;;;21.29;61.43;100790.38;2748559;85;21585;-93
2022/09/06 10:15:43;;;;;;;4.60;3.40;;;;;;;21.26;61.12;100799.19;2753310;85;21153;-93
2022/09/06 10:19:45;;;;;;;8.85;3.15;;;;;;;21.16;61.96;100800.47;2759156;84;21019;-93
2022/09/06 10:24:10;;;;;;;6.00;3.30;;;;;;;21.17;62.68;100786.75;2742783;85;21037;-92
2022/09/06 10:28:35;;;;;;;3.80;2.98;;;;;;;21.41;63.78;100788.88;2752856;85;21145;-93
2022/09/06 10:32:57;;;;;;;4.70;3.45;;;;;;;21.57;60.78;100781.11;2764696;85;21090;-92
2022/09/06 10:37:20;;;;;;;4.45;2.90;;;;;;;21.73;61.32;100790.92;2732928;85;21062;-93
2022/09/06 10:42:03;;;;;;;6.33;3.70;;;;;;;21.87;60.66;100799.23;2758072;85;21019;-93
2022/09/06 10:46:13;;;;;;;5.00;3.92;;;;;;;22.08;60.00;100787.11;2757852;84;21137;-93
2022/09/06 10:50:16;;;;;;;5.40;3.55;;;;;;;21.96;58.48;100784.55;2751796;85;21105;-93
2022/09/06 10:54:23;;;;;;;12.65;3.10;;;;;;;21.69;59.72;100776.09;2755839;85;21046;-93
2022/09/06 10:58:30;;;;;;;8.60;3.02;;;;;;;21.67;60.64;100777.62;2768317;84;21054;-93
2022/09/06 11:02:53;;;;;;;5.03;2.95;;;;;;;21.68;60.72;100773.06;2763798;83;21049;-92
2022/09/06 11:06:59;;;;;;;14.73;4.10;;;;;;;21.76;59.77;100779.72;2735120;85;21058;-93
2022/09/06 11:11:09;;;;;;;7.30;3.50;;;;;;;21.75;59.58;100768.56;2759447;85;21049;-93
2022/09/06 11:15:14;;;;;;;3.58;2.98;;;;;;;21.68;59.42;100773.06;2763583;84;21148;-93
2022/09/06 11:19:27;;;;;;;6.67;3.92;;;;;;;21.83;58.17;100764.42;2759462;85;21090;-92
2022/09/06 11:23:54;;;;;;;6.22;2.90;;;;;;;22.02;58.72;100759.44;2701977;86;21113;-93
2022/09/06 11:27:59;;;;;;;6.55;2.92;;;;;;;22.08;56.42;100771.36;2737390;85;21123;-92
2022/09/06 11:32:03;;;;;;;5.22;2.92;;;;;;;22.11;56.52;100763.70;2767094;84;21078;-92
2022/09/06 11:36:27;;;;;;;6.43;2.90;;;;;;;22.14;56.64;100773.83;2763942;85;21097;-93
2022/09/06 11:40:37;;;;;;;5.03;2.55;;;;;;;22.09;56.88;100763.55;2648113;87;21096;-92
2022/09/06 11:44:57;;;;;;;9.58;2.85;;;;;;;22.04;56.14;100768.71;2673773;87;21034;-93
2022/09/06 11:49:12;;;;;;;5.65;3.30;;;;;;;21.88;56.28;100760.30;2682274;86;21093;-93
2022/09/06 11:53:16;;;;;;;2.58;2.10;;;;;;;21.89;56.83;100761.98;2682556;87;21123;-93
2022/09/06 11:57:21;;;;;;;8.20;3.55;;;;;;;21.99;58.51;100756.27;2673789;87;21040;-92
2022/09/06 12:01:28;;;;;;;3.72;3.15;;;;;;;22.27;57.06;100752.31;2680744;87;21327;-92
2022/09/06 12:05:31;;;;;;;5.60;2.80;;;;;;;22.30;55.92;100757.34;2673856;88;21074;-93
2022/09/06 12:09:37;;;;;;;6.78;4.10;;;;;;;22.48;56.08;100745.25;2681533;87;21057;-92
2022/09/06 12:13:55;;;;;;;6.03;3.25;;;;;;;22.64;55.10;100736.86;2664031;87;21091;-94
2022/09/06 12:17:59;;;;;;;7.87;2.75;;;;;;;22.65;54.42;100732.27;2674028;87;21085;-92
2022/09/06 12:22:00;;;;;;;4.97;2.30;;;;;;;22.87;56.40;100726.80;2681707;87;21148;-94
2022/09/06 12:26:08;;;;;;;10.75;2.80;;;;;;;23.06;54.23;100734.79;2681712;87;21694;-93
2022/09/06 12:30:13;;;;;;;8.43;3.92;;;;;;;23.10;52.33;100731.48;2733442;85;21075;-93
2022/09/06 12:34:27;;;;;;;;;;;;;;;23.09;52.93;100724.89;2746167;85;21065;-93
2022/09/06 12:38:28;;;;;;;5.60;5.10;;;;;;;23.03;52.11;100714.31;2742049;85;20189;-92
2022/09/06 12:42:34;;;;;;;6.45;5.85;;;;;;;23.11;52.17;100706.53;2745660;85;21131;-91
2022/09/06 12:46:35;;;;;;;;;;;;;;;23.19;51.86;100707.75;2744915;85;21054;-91
2022/09/06 12:50:37;;;;;;;5.50;3.02;;;;;;;23.13;51.67;100692.25;2740073;85;20129;-93
2022/09/06 12:54:47;;;;;;;3.95;2.62;;;;;;;23.08;51.54;100683.88;2742618;85;21078;-96
2022/09/06 12:58:49;;;;;;;3.75;2.75;;;;;;;23.02;51.80;100673.30;2753611;85;21118;-95
2022/09/06 13:02:55;;;;;;;6.20;2.02;;;;;;;23.03;52.22;100671.44;2742933;86;21014;-95
2022/09/06 13:06:59;;;;;;;2.70;2.02;;;;;;;22.87;52.01;100675.27;2748038;84;21073;-96
2022/09/06 13:11:06;;;;;;;5.78;3.05;;;;;;;22.91;53.08;100663.84;2710538;86;21054;-95
2022/09/06 13:15:27;;;;;;;4.78;2.90;;;;;;;22.82;51.64;100660.98;2746678;86;21015;-92
2022/09/06 13:19:38;;;;;;;4.25;3.30;;;;;;;22.82;51.79;100652.84;2754977;85;21083;-94
2022/09/06 13:23:47;;;;;;;5.35;2.45;;;;;;;22.82;52.24;100648.77;2715771;86;21069;-92
2022/09/06 13:27:56;;;;;;;2.90;2.62;;;;;;;22.99;52.11;100641.16;2695815;87;21554;-92
2022/09/06 13:31:58;;;;;;;9.38;3.27;;;;;;;23.04;52.34;100637.31;2706271;86;21124;-92
2022/09/06 13:36:17;;;;;;;3.13;2.33;;;;;;;23.17;52.22;100639.25;2662971;87;21125;-96
2022/09/06 13:40:42;;;;;;;4.72;2.30;;;;;;;23.16;50.97;100637.58;2744930;85;21094;-94
2022/09/06 13:44:44;;;;;;;6.62;3.08;;;;;;;23.07;51.04;100632.84;2741623;85;21098;-96
2022/09/06 13:48:45;;;;;;;3.02;2.55;;;;;;;22.95;52.06;100636.63;2737546;86;21082;-96
2022/09/06 13:52:47;;;;;;;4.92;2.85;;;;;;;22.89;51.79;100632.02;2741090;85;21110;-94
2022/09/06 13:56:50;;;;;;;3.45;2.30;;;;;;;22.85;51.22;100632.10;2755896;84;21149;-93
2022/09/06 14:00:53;;;;;;;12.95;3.80;;;;;;;22.85;51.68;100634.81;2719910;86;21094;-94
2022/09/06 14:04:55;;;;;;;22.55;2.55;;;;;;;22.84;52.03;100634.50;2745910;85;21105;-94
2022/09/06 14:08:56;;;;;;;3.40;2.22;;;;;;;22.88;52.78;100627.63;2740928;85;21031;-92
2022/09/06 14:12:57;;;;;;;4.72;2.62;;;;;;;23.05;51.58;100627.31;2741878;86;21054;-94
2022/09/06 14:16:59;;;;;;;3.87;1.77;;;;;;;23.06;51.89;100621.67;2738069;86;21039;-93
2022/09/06 14:21:00;;;;;;;7.10;3.27;;;;;;;23.00;51.87;100626.55;2723044;85;21050;-94
2022/09/06 14:25:02;;;;;;;5.28;2.35;;;;;;;23.02;51.95;100620.94;2740298;85;21058;-93
2022/09/06 14:29:05;;;;;;;5.75;2.12;;;;;;;22.98;51.92;100616.42;2743803;86;21109;-92
2022/09/06 14:33:07;;;;;;;5.87;2.30;;;;;;;22.89;52.70;100614.39;2705141;86;21583;-95
2022/09/06 14:37:08;;;;;;;5.08;2.27;;;;;;;22.82;52.53;100612.16;2733240;85;21574;-94
2022/09/06 14:41:12;;;;;;;3.72;2.50;;;;;;;22.83;53.52;100613.84;2736309;85;21063;-92
2022/09/06 14:45:14;;;;;;;7.22;2.95;;;;;;;22.79;52.88;100615.25;2727805;85;21641;-94
2022/09/06 14:49:15;;;;;;;8.88;2.98;;;;;;;22.84;53.65;100606.02;2730766;87;21054;-94
2022/09/06 14:53:16;;;;;;;3.08;2.10;;;;;;;22.80;52.64;100599.33;2709992;87;21083;-96
2022/09/06 14:57:18;;;;;;;6.40;3.45;;;;;;;22.78;53.28;100600.02;2709981;86;21134;-94
2022/09/06 15:01:22;;;;;;;2.60;2.30;;;;;;;22.77;53.18;100606.48;2731843;85;21062;-94
2022/09/06 15:05:24;;;;;;;2.87;2.40;;;;;;;22.74;53.93;100605.52;2755485;84;21143;-93
2022/09/06 15:09:26;;;;;;;5.58;2.40;;;;;;;22.75;54.12;100599.06;2731059;86;21060;-91
2022/09/06 15:13:28;;;;;;;8.93;2.90;;;;;;;22.65;53.62;100592.14;2716904;85;21122;-91
2022/09/06 15:17:30;;;;;;;4.53;2.92;;;;;;;22.67;54.89;100591.42;2745965;84;21102;-92
2022/09/06 15:21:31;;;;;;;3.45;3.00;;;;;;;22.70;55.54;100583.41;2735407;86;21728;-92
2022/09/06 15:25:33;;;;;;;5.78;3.30;;;;;;;22.73;56.23;100579.45;2734673;87;21035;-92
2022/09/06 15:29:34;;;;;;;7.62;2.22;;;;;;;22.73;57.69;100577.59;2730411;85;21134;-92
2022/09/06 15:33:37;;;;;;;7.60;3.55;;;;;;;22.72;57.24;100580.48;2734073;86;20995;-93
2022/09/06 15:37:39;;;;;;;4.20;3.00;;;;;;;22.71;58.17;100578.31;2714147;85;21121;-94
2022/09/06 15:41:41;;;;;;;5.40;3.10;;;;;;;22.66;57.80;100576.19;2763970;82;21043;-85
2022/09/06 15:45:48;;;;;;;5.15;3.37;;;;;;;22.56;58.59;100571.63;2829897;82;21027;-86
2022/09/06 15:49:50;;;;;;;6.22;3.05;;;;;;;22.46;60.22;100569.23;2837770;82;21057;-85
2022/09/06 15:53:51;;;;;;;9.48;3.10;;;;;;;22.31;61.39;100566.63;2783464;83;21055;-84
2022/09/06 15:57:53;;;;;;;4.25;3.30;;;;;;;22.10;61.94;100566.14;2780953;83;21107;-85
2022/09/06 16:01:54;;;;;;;4.85;2.67;;;;;;;21.96;61.57;100553.00;2773847;84;21087;-87
2022/09/06 16:06:09;;;;;;;3.72;2.67;;;;;;;21.90;61.43;100547.02;2749071;85;21035;-87
2022/09/06 16:10:11;;;;;;;3.30;2.65;;;;;;;21.83;62.14;100547.80;2773783;84;22343;-87
2022/09/06 16:14:14;;;;;;;3.22;2.62;;;;;;;21.82;62.16;100536.66;2749931;85;21043;-85
2022/09/06 16:18:18;;;;;;;3.75;2.10;;;;;;;21.81;61.88;100536.34;2775082;85;21070;-86
2022/09/06 16:22:20;;;;;;;5.92;2.52;;;;;;;21.80;61.41;100532.45;2775117;84;21074;-87
2022/09/06 16:26:23;;;;;;;3.20;2.30;;;;;;;21.81;62.02;100534.12;2774800;85;21075;-86
2022/09/06 16:30:25;;;;;;;5.55;2.98;;;;;;;21.80;62.01;100533.28;2774640;85;21083;-85
2022/09/06 16:34:27;;;;;;;6.50;2.92;;;;;;;21.75;61.85;100531.67;2775055;85;20996;-84
2022/09/06 16:38:30;;;;;;;4.90;3.12;;;;;;;21.66;62.53;100535.03;2776100;85;21027;-85
2022/09/06 16:42:32;;;;;;;5.97;3.35;;;;;;;21.55;62.82;100534.99;2774574;85;21028;-85
2022/09/06 16:46:33;;;;;;;5.50;2.17;;;;;;;21.48;62.58;100535.95;2801508;83;21004;-85
2022/09/06 16:50:35;;;;;;;6.58;3.42;;;;;;;21.40;62.36;100542.31;2774323;84;21043;-85
2022/09/06 16:54:36;;;;;;;5.47;2.58;;;;;;;21.32;62.43;100546.00;2741145;85;21031;-85
2022/09/06 16:58:40;;;;;;;5.62;2.42;;;;;;;21.26;62.41;100547.59;2737103;84;21031;-86
2022/09/06 17:02:42;;;;;;;3.50;2.30;;;;;;;21.21;62.29;100544.60;2775171;85;21004;-87
2022/09/06 17:06:44;;;;;;;2.85;2.58;;;;;;;21.19;62.63;100538.55;2775624;85;21023;-85
2022/09/06 17:10:46;;;;;;;6.95;2.35;;;;;;;21.14;62.47;100524.77;2780106;83;21594;-85
2022/09/06 17:14:47;;;;;;;4.58;2.10;;;;;;;21.06;62.50;100521.65;2833174;82;21025;-86
2022/09/06 17:18:52;;;;;;;3.60;3.00;;;;;;;20.96;62.32;100509.78;2831739;83;21415;-86
2022/09/06 17:22:53;;;;;;;6.37;3.27;;;;;;;20.89;62.36;100506.17;2831961;83;21068;-86
2022/09/06 17:26:55;;;;;;;4.12;2.92;;;;;;;20.84;62.91;100515.36;2809469;83;21044;-86
2022/09/06 17:31:00;;;;;;;5.33;3.00;;;;;;;20.69;65.06;100508.06;2825856;83;21410;-85
2022/09/06 17:35:02;;;;;;;4.20;3.22;;;;;;;20.53;66.34;100513.66;2822545;83;20996;-86
2022/09/06 17:39:12;;;;;;;4.47;3.30;;;;;;;20.40;66.94;100529.16;2827949;82;21029;-86
2022/09/06 17:43:13;;;;;;;5.05;3.08;;;;;;;20.28;67.65;100526.08;2838186;81;21116;-85
2022/09/06 17:47:15;;;;;;;7.33;3.50;;;;;;;20.20;67.10;100529.70;2827084;83;20997;-87
2022/09/06 17:51:17;;;;;;;4.00;2.65;;;;;;;20.14;66.68;100529.58;2838338;83;21032;-86
2022/09/06 17:55:19;;;;;;;4.10;3.20;;;;;;;20.06;65.49;100525.95;2836987;83;21025;-86
2022/09/06 17:59:20;;;;;;;6.25;3.87;;;;;;;20.03;66.40;100539.78;2842319;83;20981;-87
2022/09/06 18:03:21;;;;;;;4.62;3.00;;;;;;;19.97;66.90;100534.63;2832477;83;21034;-87
2022/09/06 18:07:22;;;;;;;5.97;2.92;;;;;;;19.91;67.39;100540.73;2826230;83;21096;-86
2022/09/06 18:11:31;;;;;;;18.57;11.93;;;;;;;19.83;67.66;100538.91;2831351;82;21512;-84
2022/09/06 18:15:39;;;;;;;19.35;9.23;;;;;;;19.76;67.77;100542.00;2836823;82;21019;-83
2022/09/06 18:19:40;;;;;;;8.50;5.03;;;;;;;19.68;67.39;100538.03;2830573;83;21034;-85
2022/09/06 18:23:42;;;;;;;6.00;3.65;;;;;;;19.62;68.12;100540.08;2831569;83;21040;-84
2022/09/06 18:27:43;;;;;;;7.42;4.05;;;;;;;19.53;69.26;100538.80;2825139;82;21113;-84
2022/09/06 18:31:44;;;;;;;11.25;4.87;;;;;;;19.48;69.32;100547.94;2826796;82;21661;-85
2022/09/06 18:35:49;;;;;;;9.08;5.80;;;;;;;19.41;69.93;100545.61;2833117;82;21017;-84
2022/09/06 18:39:50;;;;;;;6.60;4.95;;;;;;;19.37;69.85;100556.42;2830538;82;21096;-86
2022/09/06 18:43:51;;;;;;;8.48;4.92;;;;;;;19.32;70.12;100550.20;2795129;82;21046;-85
2022/09/06 18:47:53;;;;;;;13.65;6.47;;;;;;;19.29;70.61;100539.78;2830173;82;21078;-85
2022/09/06 18:51:54;;;;;;;9.88;5.50;;;;;;;19.26;70.31;100538.79;2844780;82;21032;-86
2022/09/06 18:55:55;;;;;;;2.87;2.17;;;;;;;19.20;69.87;100543.55;2839008;82;21525;-86
2022/09/06 18:59:56;;;;;;;11.38;2.87;;;;;;;19.16;68.43;100541.70;2844227;82;21002;-86
2022/09/06 19:03:59;;;;;;;8.35;2.62;;;;;;;19.20;68.45;100545.72;2838076;82;21085;-86